Aviation Digital Data Service (ADDS)

Output produced by METARs form (1632 UTC 19 October 2017)
found at http://aviationweather.gov/adds/metars/
 
METAR text: KONP 191615Z AUTO 21009KT 1 1/2SM RA BKN003 OVC010 11/11 A2970 RMK AO2 P0003
Conditions at: KONP (NEWPORT , OR, US) observed 1615 UTC 19 October 2017
Temperature: 11.0°C (52°F)
Dewpoint: 11.0°C (52°F) [RH = 100%]
Pressure (altimeter): 29.70 inches Hg (1005.8 mb)
Winds: from the SSW (210 degrees) at 10 MPH (9 knots; 4.7 m/s)
Visibility: 1.50 miles (2.41 km)
Ceiling: 300 feet AGL
Clouds: broken clouds at 300 feet AGL
overcast cloud deck at 1000 feet AGL
Weather: RA  (rain)

METAR text: KONP 191555Z AUTO 21007KT 1 3/4SM -RA OVC003 11/11 A2968 RMK AO2 P0005
Conditions at: KONP (NEWPORT , OR, US) observed 1555 UTC 19 October 2017
Temperature: 11.0°C (52°F)
Dewpoint: 11.0°C (52°F) [RH = 100%]
Pressure (altimeter): 29.68 inches Hg (1005.2 mb)
Winds: from the SSW (210 degrees) at 8 MPH (7 knots; 3.6 m/s)
Visibility: 1.75 miles (2.82 km)
Ceiling: 300 feet AGL
Clouds: overcast cloud deck at 300 feet AGL
Weather: -RA  (light rain)

METAR text: KONP 191535Z AUTO 21008KT 1SM -RA OVC003 11/11 A2968 RMK AO2 P0003
Conditions at: KONP (NEWPORT , OR, US) observed 1535 UTC 19 October 2017
Temperature: 11.0°C (52°F)
Dewpoint: 11.0°C (52°F) [RH = 100%]
Pressure (altimeter): 29.68 inches Hg (1005.2 mb)
Winds: from the SSW (210 degrees) at 9 MPH (8 knots; 4.2 m/s)
Visibility: 1.00 miles (1.61 km)
Ceiling: 300 feet AGL
Clouds: overcast cloud deck at 300 feet AGL
Weather: -RA  (light rain)

METAR text: KONP 191515Z AUTO 24008KT 1SM +DZ OVC003 11/11 A2969 RMK AO2 P0001
Conditions at: KONP (NEWPORT , OR, US) observed 1515 UTC 19 October 2017
Temperature: 11.0°C (52°F)
Dewpoint: 11.0°C (52°F) [RH = 100%]
Pressure (altimeter): 29.69 inches Hg (1005.5 mb)
Winds: from the WSW (240 degrees) at 9 MPH (8 knots; 4.2 m/s)
Visibility: 1.00 miles (1.61 km)
Ceiling: 300 feet AGL
Clouds: overcast cloud deck at 300 feet AGL
Weather: +DZ  (heavy drizzle)

METAR text: KONP 191455Z AUTO 21019G24KT 2SM RA OVC005 11/11 A2970 RMK AO2 P0007
Conditions at: KONP (NEWPORT , OR, US) observed 1455 UTC 19 October 2017
Temperature: 11.0°C (52°F)
Dewpoint: 11.0°C (52°F) [RH = 100%]
Pressure (altimeter): 29.70 inches Hg (1005.8 mb)
Winds: from the SSW (210 degrees) at 22 MPH (19 knots; 9.9 m/s)
gusting to 28 MPH (24 knots; 12.5 m/s)
Visibility: 2.00 miles (3.22 km)
Ceiling: 500 feet AGL
Clouds: overcast cloud deck at 500 feet AGL
Weather: RA  (rain)

METAR text: KONP 191435Z AUTO 22017G28KT 2SM RA BKN005 OVC009 12/12 A2970 RMK AO2 P0006
Conditions at: KONP (NEWPORT , OR, US) observed 1435 UTC 19 October 2017
Temperature: 12.0°C (54°F)
Dewpoint: 12.0°C (54°F) [RH = 100%]
Pressure (altimeter): 29.70 inches Hg (1005.8 mb)
Winds: from the SW (220 degrees) at 20 MPH (17 knots; 8.8 m/s)
gusting to 32 MPH (28 knots; 14.6 m/s)
Visibility: 2.00 miles (3.22 km)
Ceiling: 500 feet AGL
Clouds: broken clouds at 500 feet AGL
overcast cloud deck at 900 feet AGL
Weather: RA  (rain)

Forecast for: KONP (NEWPORT , OR, US)
Text: KONP 191141Z 1912/2012 20020G30KT 2SM RA BR OVC004
Forecast period: 1200 to 1400 UTC 19 October 2017
Forecast type: FROM: standard forecast or significant change
Winds: from the SSW (200 degrees) at 23 MPH (20 knots; 10.4 m/s)
gusting to 34 MPH (30 knots; 15.6 m/s)
Visibility: 2.00 miles (3.22 km)
Ceiling: 400 feet AGL
Clouds: overcast cloud deck at 400 feet AGL
Weather: RA BR  (rain, mist)
Text: FM191400 20016G26KT 3SM -RA BR OVC007
Forecast period: 1400 UTC 19 October 2017 to 0200 UTC 20 October 2017
Forecast type: FROM: standard forecast or significant change
Winds: from the SSW (200 degrees) at 18 MPH (16 knots; 8.3 m/s)
gusting to 30 MPH (26 knots; 13.5 m/s)
Visibility: 3 miles (5 km)
Ceiling: 700 feet AGL
Clouds: overcast cloud deck at 700 feet AGL
Weather: -RA BR  (light rain, mist)
Text: FM200200 21011G20KT 6SM -SHRA SCT007 OVC015
Forecast period: 0200 to 1200 UTC 20 October 2017
Forecast type: FROM: standard forecast or significant change
Winds: from the SSW (210 degrees) at 13 MPH (11 knots; 5.7 m/s)
gusting to 23 MPH (20 knots; 10.4 m/s)
Visibility: 6 miles (10 km)
Ceiling: 1500 feet AGL
Clouds: scattered clouds at 700 feet AGL
overcast cloud deck at 1500 feet AGL
Weather: -SHRA  (light rain showers)